Time;durP1;ratioP1;P1;durP2;ratioP2;P2;SDS_P1;SDS_P2;PMS_P1;PMS_P2;Temp;Humidity;BMP_temperature;BMP_pressure;BME280_temperature;BME280_humidity;BME280_pressure;Samples;Min_cycle;Max_cycle;Signal;HPM_P1;HPM_P2
2022/02/20 00:01:15;;;;;;;1.60;0.30;;;6.60;1.00;;;;;;5037710;28;20426;-54
2022/02/20 00:03:42;;;;;;;1.20;0.32;;;6.60;1.00;;;;;;5037618;28;20431;-51
2022/02/20 00:06:09;;;;;;;1.10;0.30;;;6.60;1.00;;;;;;5035565;28;20423;-53
2022/02/20 00:08:36;;;;;;;1.30;0.20;;;6.60;1.00;;;;;;5033959;28;20441;-56
2022/02/20 00:11:03;;;;;;;1.20;0.30;;;6.60;1.00;;;;;;5034404;28;20730;-52
2022/02/20 00:13:30;;;;;;;0.60;0.20;;;6.60;1.00;;;;;;5036378;28;20452;-56
2022/02/20 00:15:57;;;;;;;0.90;0.30;;;6.60;1.00;;;;;;5035714;28;20537;-56
2022/02/20 00:18:25;;;;;;;1.10;0.30;;;6.50;1.00;;;;;;5035836;28;20435;-56
2022/02/20 00:20:53;;;;;;;2.50;0.20;;;6.40;1.00;;;;;;5035990;28;20427;-53
2022/02/20 00:23:20;;;;;;;1.30;0.30;;;6.40;1.00;;;;;;5035724;28;20727;-52
2022/02/20 00:25:48;;;;;;;1.63;0.20;;;6.30;84.30;;;;;;5036798;28;20455;-56
2022/02/20 00:28:15;;;;;;;1.73;0.30;;;6.30;49.90;;;;;;5035793;28;20435;-52
2022/02/20 00:30:43;;;;;;;2.10;0.30;;;6.20;99.90;;;;;;5036000;28;20827;-54
2022/02/20 00:33:10;;;;;;;2.00;0.20;;;6.30;99.90;;;;;;5035659;28;20427;-54
2022/02/20 00:35:38;;;;;;;0.70;0.20;;;6.20;99.90;;;;;;5035826;28;20431;-55
2022/02/20 00:38:06;;;;;;;0.60;0.20;;;6.10;99.90;;;;;;5034579;28;20434;-55
2022/02/20 00:40:33;;;;;;;1.37;0.30;;;6.10;99.90;;;;;;5035733;28;20419;-53
2022/02/20 00:43:00;;;;;;;0.70;0.30;;;5.90;99.90;;;;;;5035221;28;20726;-56
2022/02/20 00:45:28;;;;;;;0.82;0.20;;;5.80;1.00;;;;;;5035608;28;20411;-54
2022/02/20 00:47:55;;;;;;;1.02;0.20;;;5.70;1.00;;;;;;5035435;28;20427;-57
2022/02/20 00:50:22;;;;;;;0.88;0.20;;;5.70;1.00;;;;;;5035612;28;20423;-54
2022/02/20 00:52:50;;;;;;;0.57;0.30;;;5.70;1.00;;;;;;5035568;28;20430;-53
2022/02/20 00:55:17;;;;;;;1.20;0.23;;;5.90;1.00;;;;;;5035529;28;20443;-57
2022/02/20 00:57:44;;;;;;;0.60;0.20;;;5.90;1.00;;;;;;5035912;28;20517;-53
2022/02/20 01:00:13;;;;;;;0.80;0.30;;;5.90;1.00;;;;;;5036571;28;20425;-57
2022/02/20 01:02:40;;;;;;;1.50;0.20;;;5.90;1.00;;;;;;5035950;28;20838;-53
2022/02/20 01:05:09;;;;;;;1.30;0.30;;;5.80;1.00;;;;;;5036697;28;20529;-55
2022/02/20 01:07:36;;;;;;;1.63;0.30;;;5.90;46.10;;;;;;5036249;28;20423;-56
2022/02/20 01:10:05;;;;;;;2.72;0.30;;;5.90;1.00;;;;;;5035678;28;20514;-57
2022/02/20 01:12:32;;;;;;;1.20;0.20;;;6.00;1.00;;;;;;5036352;28;20427;-54
2022/02/20 01:14:59;;;;;;;1.50;0.22;;;5.90;99.90;;;;;;5036229;28;20439;-54
2022/02/20 01:17:27;;;;;;;1.40;0.20;;;5.80;99.90;;;;;;5036383;28;20419;-54
2022/02/20 01:19:54;;;;;;;1.63;0.20;;;5.70;99.90;;;;;;5036158;28;20473;-54
2022/02/20 01:22:22;;;;;;;1.65;0.30;;;5.80;99.90;;;;;;5036159;28;20427;-54
2022/02/20 01:24:49;;;;;;;1.40;0.30;;;5.80;99.90;;;;;;5036275;28;20529;-57
2022/02/20 01:27:17;;;;;;;0.63;0.20;;;5.80;99.90;;;;;;5035744;28;20422;-57
2022/02/20 01:29:44;;;;;;;1.40;0.20;;;5.80;99.90;;;;;;5036007;28;20431;-55
2022/02/20 01:32:11;;;;;;;3.00;0.30;;;5.80;1.00;;;;;;5035530;28;20463;-56
2022/02/20 01:34:38;;;;;;;1.90;0.20;;;5.80;99.90;;;;;;5036050;28;20449;-57
2022/02/20 01:37:05;;;;;;;0.40;0.20;;;6.00;99.90;;;;;;5035756;28;20427;-55
2022/02/20 01:39:32;;;;;;;1.50;0.20;;;5.90;99.90;;;;;;5035533;28;20427;-51
2022/02/20 01:41:59;;;;;;;0.70;0.20;;;5.90;99.90;;;;;;5035275;28;20827;-54
2022/02/20 01:44:27;;;;;;;0.70;0.25;;;5.90;99.90;;;;;;5035453;28;20525;-55
2022/02/20 01:47:03;;;;;;;0.52;0.20;;;5.80;99.90;;;;;;5035834;28;20890;-56
2022/02/20 01:49:30;;;;;;;1.50;0.20;;;5.80;99.90;;;;;;5034969;28;20457;-55
2022/02/20 01:51:57;;;;;;;0.70;0.20;;;5.90;99.90;;;;;;5035708;28;20827;-54
2022/02/20 01:54:23;;;;;;;1.00;0.22;;;5.90;99.90;;;;;;5035544;28;20418;-56
2022/02/20 01:56:51;;;;;;;0.60;0.20;;;5.80;99.90;;;;;;5034990;28;20436;-56
2022/02/20 01:59:20;;;;;;;0.60;0.20;;;5.90;99.90;;;;;;5034725;28;20449;-55
2022/02/20 02:01:50;;;;;;;2.28;0.20;;;5.90;79.40;;;;;;5035534;28;20430;-58
2022/02/20 02:04:17;;;;;;;1.70;0.30;;;5.90;22.90;;;;;;5034509;28;20965;-56
2022/02/20 02:06:44;;;;;;;1.00;0.20;;;6.00;9.70;;;;;;5034616;28;20807;-59
2022/02/20 02:09:10;;;;;;;0.87;0.20;;;6.00;1.00;;;;;;5034418;28;20462;-56
2022/02/20 02:11:38;;;;;;;1.33;0.30;;;5.90;99.90;;;;;;5034558;28;20492;-53
2022/02/20 02:14:05;;;;;;;0.70;0.20;;;6.00;99.90;;;;;;5034914;28;20438;-56
2022/02/20 02:16:32;;;;;;;0.50;0.30;;;6.00;1.20;;;;;;5034752;28;20925;-52
2022/02/20 02:19:00;;;;;;;0.60;0.20;;;6.00;99.90;;;;;;5035121;28;20712;-56
2022/02/20 02:21:27;;;;;;;1.00;0.30;;;6.10;99.90;;;;;;5035401;28;20738;-55
2022/02/20 02:23:55;;;;;;;1.40;0.30;;;6.10;99.90;;;;;;5035349;28;20466;-56
2022/02/20 02:26:23;;;;;;;0.40;0.20;;;6.20;25.90;;;;;;5034980;28;20423;-53
2022/02/20 02:28:51;;;;;;;0.60;0.30;;;6.30;1.00;;;;;;5035056;28;20521;-57
2022/02/20 02:31:19;;;;;;;0.60;0.20;;;6.20;1.00;;;;;;5035347;28;20719;-56
2022/02/20 02:33:46;;;;;;;0.53;0.20;;;6.20;34.60;;;;;;5035155;28;20431;-57
2022/02/20 02:36:14;;;;;;;0.60;0.30;;;6.10;94.70;;;;;;5035027;28;20470;-54
2022/02/20 02:38:41;;;;;;;1.30;0.20;;;6.20;12.50;;;;;;5035126;28;20431;-51
2022/02/20 02:41:10;;;;;;;0.80;0.20;;;6.30;1.00;;;;;;5035090;28;20422;-56
2022/02/20 02:43:40;;;;;;;0.50;0.20;;;6.20;29.30;;;;;;5034309;28;20485;-56
2022/02/20 02:46:07;;;;;;;0.47;0.20;;;6.20;85.90;;;;;;5033406;28;20514;-52
2022/02/20 02:48:34;;;;;;;1.00;0.20;;;6.30;4.80;;;;;;5033445;28;20433;-54
2022/02/20 02:51:02;;;;;;;2.08;0.50;;;6.20;1.00;;;;;;5033194;28;20823;-56
2022/02/20 02:53:29;;;;;;;1.40;0.20;;;6.20;99.90;;;;;;5032939;28;20426;-59
2022/02/20 02:55:56;;;;;;;1.80;0.30;;;6.20;99.90;;;;;;5033588;28;20858;-56
2022/02/20 02:58:27;;;;;;;0.68;0.20;;;6.30;99.90;;;;;;5034080;28;20889;-54
2022/02/20 03:00:55;;;;;;;0.60;0.20;;;6.20;99.90;;;;;;5036396;28;20516;-50
2022/02/20 03:03:22;;;;;;;1.23;0.20;;;6.20;99.90;;;;;;5037265;28;20902;-56
2022/02/20 03:05:51;;;;;;;1.80;0.20;;;6.20;99.90;;;;;;5038246;28;20622;-51
2022/02/20 03:08:18;;;;;;;0.90;0.20;;;6.20;99.90;;;;;;5038851;28;20513;-54
2022/02/20 03:10:45;;;;;;;1.00;0.20;;;6.20;1.00;;;;;;5038697;28;20843;-55
2022/02/20 03:13:12;;;;;;;0.30;0.20;;;6.20;1.00;;;;;;5038620;28;20423;-50
2022/02/20 03:15:40;;;;;;;0.80;0.20;;;6.30;99.90;;;;;;5037517;28;20758;-56
2022/02/20 03:18:07;;;;;;;0.60;0.20;;;6.40;99.90;;;;;;5037002;28;20442;-54
2022/02/20 03:20:34;;;;;;;0.40;0.20;;;6.40;99.90;;;;;;5037699;28;20819;-55
2022/02/20 03:23:01;;;;;;;1.20;0.30;;;6.40;99.90;;;;;;5037694;28;20699;-52
2022/02/20 03:25:27;;;;;;;1.48;0.30;;;6.30;1.00;;;;;;5036276;28;20411;-54
2022/02/20 03:27:54;;;;;;;0.52;0.20;;;6.30;1.00;;;;;;5037198;28;20711;-54
2022/02/20 03:30:21;;;;;;;1.42;0.20;;;6.40;1.00;;;;;;5037373;28;20473;-55
2022/02/20 03:32:49;;;;;;;0.50;0.20;;;6.40;1.00;;;;;;5037246;28;20431;-53
2022/02/20 03:35:16;;;;;;;0.80;0.20;;;6.40;1.00;;;;;;5037426;28;20445;-55
2022/02/20 03:37:43;;;;;;;1.00;0.20;;;6.40;99.90;;;;;;5036853;28;20507;-56
2022/02/20 03:40:11;;;;;;;0.90;0.20;;;6.40;99.90;;;;;;5037682;28;20427;-55
2022/02/20 03:42:38;;;;;;;0.77;0.20;;;6.40;1.00;;;;;;5037284;28;20429;-51
2022/02/20 03:45:06;;;;;;;0.80;0.20;;;6.40;83.40;;;;;;5037844;28;20433;-53
2022/02/20 03:47:33;;;;;;;1.00;0.20;;;6.40;99.90;;;;;;5038216;28;20688;-55
2022/02/20 03:50:01;;;;;;;0.40;0.20;;;6.50;39.70;;;;;;5038151;28;20839;-55
2022/02/20 03:52:30;;;;;;;1.00;0.20;;;6.40;99.90;;;;;;5037894;28;20425;-55
2022/02/20 03:54:57;;;;;;;0.75;0.20;;;6.50;99.90;;;;;;5037749;28;20433;-56
2022/02/20 03:57:24;;;;;;;1.10;0.20;;;6.50;99.90;;;;;;5036955;28;20963;-54
2022/02/20 03:59:50;;;;;;;1.00;0.50;;;6.60;1.00;;;;;;5036249;28;20430;-56
2022/02/20 04:02:17;;;;;;;0.50;0.20;;;6.60;1.00;;;;;;5036459;28;20523;-55
2022/02/20 04:04:44;;;;;;;0.60;0.20;;;6.60;99.90;;;;;;5036011;28;20437;-55
2022/02/20 04:07:12;;;;;;;0.43;0.20;;;6.50;1.00;;;;;;5035925;28;20706;-50
2022/02/20 04:09:39;;;;;;;0.60;0.20;;;6.50;1.00;;;;;;5035705;28;20434;-52
2022/02/20 04:12:06;;;;;;;1.20;0.20;;;6.50;99.90;;;;;;5033546;28;20422;-56
2022/02/20 04:14:33;;;;;;;0.45;0.20;;;6.50;99.90;;;;;;5035476;28;20435;-55
2022/02/20 04:17:00;;;;;;;1.20;0.20;;;6.50;99.90;;;;;;5035517;28;20584;-54
2022/02/20 04:19:27;;;;;;;0.50;0.20;;;6.40;1.00;;;;;;5035700;28;20435;-54
2022/02/20 04:21:54;;;;;;;0.90;0.10;;;6.30;1.00;;;;;;5035752;28;20485;-55
2022/02/20 04:24:22;;;;;;;0.70;0.20;;;6.40;1.00;;;;;;5035855;28;20504;-52
2022/02/20 04:26:49;;;;;;;0.50;0.20;;;6.40;1.00;;;;;;5037192;28;20455;-55
2022/02/20 04:29:16;;;;;;;0.30;0.10;;;6.30;1.00;;;;;;5037394;28;20435;-49
2022/02/20 04:31:43;;;;;;;0.40;0.10;;;6.30;1.00;;;;;;5036567;28;20835;-55
2022/02/20 04:34:10;;;;;;;1.00;0.20;;;6.20;1.00;;;;;;5035632;28;20431;-55
2022/02/20 04:36:37;;;;;;;0.70;0.20;;;6.10;1.00;;;;;;5036283;28;20435;-55
2022/02/20 04:39:05;;;;;;;0.30;0.13;;;6.00;1.00;;;;;;5037323;28;20881;-55
2022/02/20 04:41:33;;;;;;;0.60;0.10;;;6.00;1.00;;;;;;5035954;28;20423;-52
2022/02/20 04:44:00;;;;;;;0.80;0.20;;;6.10;1.00;;;;;;5035486;28;20854;-53
2022/02/20 04:46:27;;;;;;;0.50;0.20;;;6.10;1.00;;;;;;5035420;28;20486;-51
2022/02/20 04:48:53;;;;;;;0.70;0.10;;;6.00;1.00;;;;;;5035569;28;20442;-51
2022/02/20 04:51:20;;;;;;;3.28;0.20;;;5.90;1.00;;;;;;5035870;28;20438;-55
2022/02/20 04:53:47;;;;;;;1.40;0.20;;;6.00;1.00;;;;;;5035708;28;20437;-51
2022/02/20 04:56:14;;;;;;;0.50;0.10;;;6.00;1.00;;;;;;5035494;28;20435;-53
2022/02/20 04:58:42;;;;;;;0.40;0.20;;;6.00;1.00;;;;;;5036918;28;20435;-55
2022/02/20 05:01:09;;;;;;;0.35;0.13;;;6.00;1.00;;;;;;5036582;28;20427;-54
2022/02/20 05:03:36;;;;;;;0.40;0.10;;;6.00;1.00;;;;;;5036724;28;20434;-53
2022/02/20 05:06:03;;;;;;;0.50;0.10;;;6.00;1.00;;;;;;5036712;28;20429;-52
2022/02/20 05:08:30;;;;;;;0.40;0.10;;;6.00;1.00;;;;;;5036891;28;20430;-57
2022/02/20 05:10:56;;;;;;;0.50;0.10;;;6.00;1.00;;;;;;5036493;28;20427;-53
2022/02/20 05:13:23;;;;;;;0.40;0.10;;;5.90;1.00;;;;;;5036028;28;20492;-55
2022/02/20 05:15:51;;;;;;;0.50;0.10;;;5.90;1.00;;;;;;5036213;28;20439;-54
2022/02/20 05:18:18;;;;;;;1.60;0.10;;;6.00;1.00;;;;;;5036082;28;20832;-54
2022/02/20 05:20:46;;;;;;;0.43;0.20;;;6.00;1.00;;;;;;5035847;28;20426;-56
2022/02/20 05:23:13;;;;;;;0.50;0.20;;;5.90;1.00;;;;;;5035546;28;20458;-57
2022/02/20 05:25:40;;;;;;;1.50;0.20;;;5.90;1.00;;;;;;5035703;28;20419;-52
2022/02/20 05:28:06;;;;;;;0.60;0.10;;;5.80;2.40;;;;;;5035391;28;20435;-55
2022/02/20 05:30:33;;;;;;;1.10;0.10;;;5.70;12.30;;;;;;5035319;28;20426;-55
2022/02/20 05:33:01;;;;;;;1.05;0.20;;;5.80;25.20;;;;;;5035646;28;20719;-53
2022/02/20 05:35:28;;;;;;;0.80;0.20;;;5.80;18.20;;;;;;5036020;28;20415;-51
2022/02/20 05:37:55;;;;;;;1.20;0.20;;;5.90;27.10;;;;;;5036096;28;20735;-50
2022/02/20 05:40:23;;;;;;;1.30;0.20;;;6.00;23.70;;;;;;5035960;28;20437;-56
2022/02/20 05:42:51;;;;;;;0.80;0.20;;;5.90;32.40;;;;;;5035711;28;20722;-49
2022/02/20 05:45:18;;;;;;;0.35;0.10;;;5.90;37.00;;;;;;5035446;28;20441;-56
2022/02/20 05:47:45;;;;;;;0.30;0.20;;;5.80;30.00;;;;;;5035003;28;20486;-55
2022/02/20 05:50:13;;;;;;;0.60;0.20;;;5.70;52.10;;;;;;5034367;28;20823;-55
2022/02/20 05:52:40;;;;;;;0.40;0.20;;;5.60;54.10;;;;;;5033318;28;20564;-50
2022/02/20 05:55:08;;;;;;;1.08;0.20;;;5.70;62.50;;;;;;5032915;28;20437;-52
2022/02/20 05:57:45;;;;;;;0.52;0.10;;;5.80;59.10;;;;;;5032718;28;20441;-54
2022/02/20 06:00:14;;;;;;;0.50;0.20;;;5.80;62.50;;;;;;5032746;28;20699;-54
2022/02/20 06:02:41;;;;;;;0.30;0.10;;;5.70;85.40;;;;;;5033393;28;20485;-52
2022/02/20 06:05:09;;;;;;;0.60;0.30;;;5.60;92.20;;;;;;5033965;28;20458;-54
2022/02/20 06:07:38;;;;;;;0.40;0.20;;;5.70;91.60;;;;;;5034414;28;20452;-50
2022/02/20 06:10:06;;;;;;;1.10;0.20;;;5.70;83.30;;;;;;5035644;28;20837;-56
2022/02/20 06:12:33;;;;;;;0.80;0.20;;;5.80;63.00;;;;;;5035268;28;20425;-54
2022/02/20 06:15:00;;;;;;;0.60;0.20;;;5.80;64.60;;;;;;5035586;28;20921;-54
2022/02/20 06:17:28;;;;;;;0.80;0.20;;;5.70;54.10;;;;;;5035258;28;20457;-53
2022/02/20 06:19:55;;;;;;;0.57;0.20;;;5.80;54.00;;;;;;5035708;28;20457;-53
2022/02/20 06:22:22;;;;;;;0.40;0.20;;;5.90;59.50;;;;;;5035267;28;20422;-54
2022/02/20 06:24:50;;;;;;;0.40;0.20;;;5.90;38.70;;;;;;5034680;28;20427;-54
2022/02/20 06:27:17;;;;;;;0.40;0.10;;;6.00;36.30;;;;;;5035148;28;20415;-50
2022/02/20 06:29:44;;;;;;;0.50;0.10;;;5.90;28.60;;;;;;5035237;28;20434;-50
2022/02/20 06:32:12;;;;;;;0.50;0.20;;;6.10;33.20;;;;;;5035329;28;20431;-55
2022/02/20 06:34:39;;;;;;;1.40;0.20;;;6.10;18.30;;;;;;5035089;28;20486;-56
2022/02/20 06:37:05;;;;;;;0.50;0.20;;;6.20;3.20;;;;;;5038412;28;20443;-54
2022/02/20 06:39:32;;;;;;;0.40;0.20;;;6.10;7.00;;;;;;5039391;28;20437;-56
2022/02/20 06:42:01;;;;;;;1.00;0.10;;;6.10;1.00;;;;;;5039477;28;20830;-55
2022/02/20 06:44:28;;;;;;;0.70;0.10;;;6.20;1.00;;;;;;5039059;28;20431;-56
2022/02/20 06:46:55;;;;;;;0.50;0.10;;;6.30;1.00;;;;;;5039182;28;20422;-57
2022/02/20 06:49:21;;;;;;;0.40;0.10;;;6.30;1.00;;;;;;5039207;28;20435;-55
2022/02/20 06:51:48;;;;;;;0.70;0.10;;;6.40;1.00;;;;;;5038857;28;20684;-54
2022/02/20 06:54:15;;;;;;;1.00;0.20;;;6.30;1.00;;;;;;5039207;28;20445;-55
2022/02/20 06:56:42;;;;;;;0.30;0.10;;;6.40;1.00;;;;;;5038821;28;20442;-56
2022/02/20 06:59:10;;;;;;;0.80;0.20;;;6.30;1.00;;;;;;5030733;28;20422;-57
2022/02/20 07:01:37;;;;;;;0.60;0.10;;;6.30;1.00;;;;;;5038567;28;20861;-50
2022/02/20 07:04:05;;;;;;;0.40;0.10;;;6.30;1.00;;;;;;5038845;28;20433;-54
2022/02/20 07:06:32;;;;;;;0.30;0.10;;;6.30;1.00;;;;;;5038569;28;20423;-56
2022/02/20 07:09:00;;;;;;;0.60;0.20;;;6.30;1.00;;;;;;5038439;28;20431;-54
2022/02/20 07:11:27;;;;;;;0.50;0.10;;;6.30;1.00;;;;;;5037885;28;20493;-56
2022/02/20 07:13:54;;;;;;;0.30;0.10;;;6.40;1.00;;;;;;5036580;28;20434;-57
2022/02/20 07:16:22;;;;;;;0.30;0.10;;;6.40;1.00;;;;;;5035542;28;20429;-54
2022/02/20 07:18:49;;;;;;;0.40;0.10;;;6.30;1.00;;;;;;5035546;28;20453;-57
2022/02/20 07:21:16;;;;;;;0.40;0.10;;;6.50;1.00;;;;;;5035514;28;20423;-56
2022/02/20 07:23:43;;;;;;;0.90;0.10;;;6.40;1.00;;;;;;5036110;28;20512;-56
2022/02/20 07:26:09;;;;;;;0.40;0.20;;;6.60;1.00;;;;;;5036560;28;20433;-56
2022/02/20 07:28:36;;;;;;;0.30;0.10;;;6.60;1.00;;;;;;5037009;28;20427;-56
2022/02/20 07:31:03;;;;;;;0.40;0.20;;;6.50;1.00;;;;;;5037051;28;20437;-52
2022/02/20 07:33:31;;;;;;;0.30;0.10;;;6.50;1.00;;;;;;5037097;28;20438;-55
2022/02/20 07:35:58;;;;;;;0.40;0.10;;;6.50;1.00;;;;;;5036508;28;20427;-55
2022/02/20 07:38:25;;;;;;;0.60;0.10;;;6.50;1.00;;;;;;5036001;28;20439;-55
2022/02/20 07:40:52;;;;;;;0.30;0.10;;;6.50;1.00;;;;;;5036454;28;20708;-56
2022/02/20 07:43:19;;;;;;;0.30;0.10;;;6.60;1.00;;;;;;5037145;28;20435;-56
2022/02/20 07:45:46;;;;;;;0.40;0.10;;;6.60;1.00;;;;;;5037391;28;20718;-54
2022/02/20 07:48:14;;;;;;;0.30;0.10;;;6.60;1.00;;;;;;5037854;28;20438;-57
2022/02/20 07:50:43;;;;;;;0.30;0.17;;;6.70;1.00;;;;;;5037448;28;20435;-53
2022/02/20 07:53:11;;;;;;;0.40;0.20;;;6.70;1.00;;;;;;5036737;28;20431;-55
2022/02/20 07:55:38;;;;;;;0.40;0.20;;;6.80;1.00;;;;;;5035533;28;20458;-50
2022/02/20 07:58:10;;;;;;;0.80;0.10;;;6.80;1.00;;;;;;5034782;28;20435;-57
2022/02/20 08:00:37;;;;;;;0.40;0.10;;;6.80;1.00;;;;;;5034757;28;20426;-54
2022/02/20 08:03:04;;;;;;;1.70;0.20;;;6.80;1.00;;;;;;5034238;28;20431;-54
2022/02/20 08:05:31;;;;;;;0.30;0.10;;;6.90;1.00;;;;;;5034199;28;20508;-52
2022/02/20 08:07:59;;;;;;;0.30;0.10;;;6.90;1.00;;;;;;5034288;28;20815;-50
2022/02/20 08:10:26;;;;;;;1.00;0.20;;;7.00;1.00;;;;;;5035351;28;20827;-55
2022/02/20 08:12:55;;;;;;;0.70;0.15;;;7.10;1.00;;;;;;5034785;28;20433;-55
2022/02/20 08:15:22;;;;;;;0.73;0.20;;;7.00;1.00;;;;;;5035433;28;20888;-55
2022/02/20 08:17:50;;;;;;;0.30;0.10;;;7.00;1.00;;;;;;5033609;28;20703;-55
2022/02/20 08:20:18;;;;;;;0.70;0.20;;;7.00;1.00;;;;;;5034474;28;20930;-52
2022/02/20 08:22:46;;;;;;;0.57;0.10;;;7.10;1.00;;;;;;5033761;28;20426;-55
2022/02/20 08:25:14;;;;;;;0.30;0.10;;;7.20;1.00;;;;;;5033052;28;20501;-54
2022/02/20 08:27:41;;;;;;;0.50;0.10;;;7.20;1.00;;;;;;5033269;28;20411;-54
2022/02/20 08:30:11;;;;;;;0.50;0.10;;;7.20;1.00;;;;;;5025053;28;20423;-52
2022/02/20 08:32:38;;;;;;;0.50;0.20;;;7.30;1.00;;;;;;5032562;28;20450;-56
2022/02/20 08:35:08;;;;;;;0.45;0.10;;;7.40;99.90;;;;;;5034337;28;20458;-54
2022/02/20 08:37:36;;;;;;;0.40;0.10;;;7.50;99.90;;;;;;5034450;28;20920;-55
2022/02/20 08:40:03;;;;;;;0.85;0.10;;;7.40;99.90;;;;;;5035905;28;20439;-55
2022/02/20 08:42:32;;;;;;;0.40;0.20;;;7.40;99.90;;;;;;5036796;28;20423;-51
2022/02/20 08:44:58;;;;;;;0.60;0.20;;;7.50;99.90;;;;;;5035920;28;20435;-54
2022/02/20 08:47:25;;;;;;;0.50;0.20;;;7.60;35.70;;;;;;5034603;28;20501;-56
2022/02/20 08:49:52;;;;;;;0.40;0.20;;;7.60;1.00;;;;;;5033540;28;20430;-56
2022/02/20 08:52:19;;;;;;;0.80;0.20;;;7.70;1.00;;;;;;5034290;28;20723;-54
2022/02/20 08:54:46;;;;;;;0.40;0.10;;;7.80;1.00;;;;;;5041119;28;20882;-53
2022/02/20 08:57:13;;;;;;;0.30;0.10;;;7.80;1.00;;;;;;5050063;28;20433;-54
2022/02/20 08:59:41;;;;;;;0.60;0.20;;;7.80;1.00;;;;;;5046638;28;20877;-57
2022/02/20 09:02:09;;;;;;;0.50;0.10;;;8.00;6.50;;;;;;5045039;28;20525;-56
2022/02/20 09:04:37;;;;;;;0.68;0.10;;;8.10;1.00;;;;;;5045694;28;20433;-56
2022/02/20 09:07:04;;;;;;;0.98;0.20;;;8.20;1.00;;;;;;5051810;28;20487;-55
2022/02/20 09:09:31;;;;;;;0.30;0.10;;;8.40;1.00;;;;;;5034614;28;20523;-55
2022/02/20 09:11:58;;;;;;;0.70;0.10;;;8.50;5.50;;;;;;5040085;28;20425;-57
2022/02/20 09:14:25;;;;;;;0.40;0.10;;;8.50;99.90;;;;;;5053109;28;20433;-57
2022/02/20 09:16:53;;;;;;;0.30;0.10;;;8.50;99.90;;;;;;5036257;28;20789;-56
2022/02/20 09:19:20;;;;;;;0.88;0.20;;;8.40;1.00;;;;;;5037995;28;20851;-56
2022/02/20 09:21:47;;;;;;;0.30;0.10;;;8.50;99.90;;;;;;5054603;28;20417;-57
2022/02/20 09:24:14;;;;;;;0.70;0.20;;;8.50;99.90;;;;;;5037593;28;20460;-56
2022/02/20 09:26:41;;;;;;;0.30;0.10;;;8.50;1.00;;;;;;5036693;28;20493;-57
2022/02/20 09:29:08;;;;;;;0.60;0.20;;;8.60;99.90;;;;;;5042744;28;20527;-57
2022/02/20 09:31:35;;;;;;;0.45;0.20;;;8.60;94.90;;;;;;5055333;28;20433;-56
2022/02/20 09:34:03;;;;;;;0.50;0.20;;;8.60;92.30;;;;;;5037345;28;20439;-56
2022/02/20 09:36:30;;;;;;;0.60;0.20;;;8.70;99.90;;;;;;5040887;28;20822;-57
2022/02/20 09:38:57;;;;;;;0.40;0.10;;;8.80;1.00;;;;;;5052883;28;20443;-56
2022/02/20 09:41:26;;;;;;;0.30;0.10;;;8.70;1.00;;;;;;5051604;28;20429;-57
2022/02/20 09:43:56;;;;;;;0.50;0.10;;;8.70;1.00;;;;;;5050787;28;20741;-52
2022/02/20 09:46:23;;;;;;;0.80;0.10;;;8.80;99.90;;;;;;5050620;28;20425;-56
2022/02/20 09:48:53;;;;;;;0.40;0.10;;;8.90;1.00;;;;;;5039002;28;20448;-55
2022/02/20 09:51:21;;;;;;;0.30;0.20;;;8.90;1.00;;;;;;5040644;28;20425;-57
2022/02/20 09:53:49;;;;;;;0.90;0.17;;;8.90;1.00;;;;;;5038901;28;20437;-55
2022/02/20 09:56:16;;;;;;;0.32;0.15;;;8.80;1.00;;;;;;5050883;28;20509;-56
2022/02/20 09:58:43;;;;;;;0.70;0.20;;;8.90;1.00;;;;;;5051983;28;20437;-58
2022/02/20 10:01:12;;;;;;;0.30;0.10;;;9.00;99.90;;;;;;5040874;28;20430;-59
2022/02/20 10:03:42;;;;;;;0.70;0.30;;;8.90;1.00;;;;;;5046448;28;20491;-57
2022/02/20 10:06:13;;;;;;;0.60;0.20;;;8.90;1.00;;;;;;5050660;28;20487;-56
2022/02/20 10:08:43;;;;;;;0.30;0.10;;;9.00;1.00;;;;;;5041347;28;20435;-56
2022/02/20 10:11:14;;;;;;;0.30;0.10;;;8.90;99.90;;;;;;5037039;28;20504;-56
2022/02/20 10:13:41;;;;;;;1.10;0.30;;;9.00;1.00;;;;;;5052024;28;20760;-58
2022/02/20 10:16:19;;;;;;;1.00;0.60;;;9.20;99.90;;;;;;5041646;28;20515;-58
2022/02/20 10:18:47;;;;;;;0.40;0.13;;;9.20;99.90;;;;;;5041039;28;20437;-57
2022/02/20 10:21:17;;;;;;;0.30;0.10;;;9.20;99.90;;;;;;5052748;28;20840;-54
2022/02/20 10:23:46;;;;;;;0.40;0.10;;;9.20;99.90;;;;;;5039509;28;20442;-56
2022/02/20 10:26:14;;;;;;;0.35;0.10;;;9.20;99.90;;;;;;5036933;28;20497;-55
2022/02/20 10:29:04;;;;;;;0.40;0.20;;;9.30;54.60;;;;;;5032628;28;20663;-55
2022/02/20 10:31:38;;;;;;;0.30;0.10;;;9.40;99.90;;;;;;5044504;28;20428;-56
2022/02/20 10:34:06;;;;;;;0.40;0.20;;;9.50;16.20;;;;;;5049262;28;20612;-57
2022/02/20 10:36:52;;;;;;;0.35;0.10;;;9.50;1.00;;;;;;5036263;28;20441;-54
2022/02/20 10:39:28;;;;;;;0.30;0.20;;;9.40;95.20;;;;;;5042243;28;20443;-57
2022/02/20 10:41:56;;;;;;;0.30;0.10;;;9.60;1.00;;;;;;5052668;28;20425;-57
2022/02/20 10:44:23;;;;;;;0.30;0.10;;;9.60;1.00;;;;;;5056487;28;20437;-58
2022/02/20 10:47:08;;;;;;;0.30;0.10;;;9.60;1.00;;;;;;5049428;28;20437;-56
2022/02/20 10:49:36;;;;;;;0.45;0.10;;;9.70;1.00;;;;;;5045273;28;20438;-56
2022/02/20 10:52:03;;;;;;;0.40;0.10;;;9.90;1.00;;;;;;5053436;28;20436;-58
2022/02/20 10:54:32;;;;;;;0.50;0.20;;;10.10;1.00;;;;;;5046012;28;20869;-56
2022/02/20 10:56:58;;;;;;;0.30;0.10;;;10.10;1.00;;;;;;5049245;28;20425;-58
2022/02/20 10:59:26;;;;;;;0.30;0.10;;;10.20;1.00;;;;;;5052346;28;20732;-51
2022/02/20 11:01:53;;;;;;;0.50;0.20;;;10.30;1.00;;;;;;5052190;28;20429;-55
2022/02/20 11:04:20;;;;;;;0.35;0.10;;;10.30;1.00;;;;;;5051082;28;20433;-55
2022/02/20 11:06:48;;;;;;;1.20;0.20;;;10.10;1.00;;;;;;5048349;28;20512;-58
2022/02/20 11:09:17;;;;;;;0.40;0.20;;;9.90;1.00;;;;;;5045378;28;20425;-56
2022/02/20 11:11:49;;;;;;;0.70;0.17;;;9.80;1.00;;;;;;5048468;28;20421;-56
2022/02/20 11:14:18;;;;;;;0.40;0.10;;;9.90;1.00;;;;;;5050895;28;20429;-53
2022/02/20 11:16:49;;;;;;;0.40;0.17;;;9.80;1.00;;;;;;5051047;28;20465;-56
2022/02/20 11:19:19;;;;;;;0.50;0.10;;;9.90;1.00;;;;;;5036232;28;20439;-55
2022/02/20 11:21:48;;;;;;;1.10;0.13;;;10.00;1.00;;;;;;5031658;28;20506;-53
2022/02/20 11:24:16;;;;;;;0.67;0.20;;;9.90;1.00;;;;;;5035262;28;20430;-55
2022/02/20 11:26:45;;;;;;;0.40;0.20;;;10.00;1.00;;;;;;5047424;28;20428;-56
2022/02/20 11:29:13;;;;;;;0.70;0.10;;;10.10;99.90;;;;;;5054099;28;20725;-54
2022/02/20 11:31:42;;;;;;;0.60;0.10;;;9.90;1.00;;;;;;5054991;28;20879;-56
2022/02/20 11:34:11;;;;;;;1.10;0.10;;;9.90;1.00;;;;;;5056037;28;20796;-54
2022/02/20 11:36:38;;;;;;;0.40;0.10;;;10.10;1.00;;;;;;5037968;28;20433;-57
2022/02/20 11:39:07;;;;;;;0.45;0.20;;;10.10;99.90;;;;;;5035304;28;20441;-54
2022/02/20 11:41:34;;;;;;;0.40;0.20;;;10.10;99.90;;;;;;5036182;28;20433;-56
2022/02/20 11:44:16;;;;;;;0.30;0.10;;;10.20;99.90;;;;;;5036786;28;20784;-57
2022/02/20 11:46:50;;;;;;;0.40;0.10;;;10.20;99.90;;;;;;5042558;28;20429;-57
2022/02/20 11:49:27;;;;;;;0.30;0.10;;;10.20;99.90;;;;;;5056807;28;20447;-56
2022/02/20 11:52:06;;;;;;;0.30;0.10;;;10.10;99.90;;;;;;5047075;28;20505;-57
2022/02/20 11:54:35;;;;;;;0.30;0.10;;;10.10;99.90;;;;;;5037870;28;20716;-57
2022/02/20 11:57:25;;;;;;;0.50;0.13;;;10.10;99.90;;;;;;5050375;28;20576;-57
2022/02/20 12:00:16;;;;;;;0.50;0.20;;;10.10;99.90;;;;;;5042095;28;20794;-57
2022/02/20 12:03:04;;;;;;;0.40;0.13;;;10.10;99.90;;;;;;5035043;28;20473;-58
2022/02/20 12:05:32;;;;;;;0.40;0.13;;;10.20;99.90;;;;;;5044686;28;20426;-59
2022/02/20 12:07:59;;;;;;;0.30;0.10;;;10.30;99.90;;;;;;5071208;28;20479;-56
2022/02/20 12:10:37;;;;;;;0.50;0.20;;;10.30;99.90;;;;;;5073859;28;20439;-56
2022/02/20 12:13:29;;;;;;;0.40;0.20;;;10.30;99.90;;;;;;5034907;28;20478;-55
2022/02/20 12:15:58;;;;;;;0.30;0.10;;;10.20;99.90;;;;;;5035089;28;20515;-56
2022/02/20 12:18:27;;;;;;;0.40;0.20;;;10.10;99.90;;;;;;5036281;28;20435;-57
2022/02/20 12:21:16;;;;;;;0.80;0.20;;;10.10;99.90;;;;;;5035523;28;20419;-57
2022/02/20 12:23:50;;;;;;;0.40;0.20;;;10.00;99.90;;;;;;5035406;28;20874;-57
2022/02/20 12:26:46;;;;;;;1.00;0.30;;;10.00;99.90;;;;;;5046668;28;20435;-57
2022/02/20 12:29:15;;;;;;;0.47;0.20;;;10.20;99.90;;;;;;5034329;28;20857;-57
2022/02/20 12:32:13;;;;;;;0.80;0.30;;;10.10;99.90;;;;;;5045773;28;20713;-57
2022/02/20 12:34:56;;;;;;;0.50;0.20;;;10.10;99.90;;;;;;5045908;28;20437;-57
2022/02/20 12:37:25;;;;;;;0.70;0.30;;;10.10;99.90;;;;;;5055328;28;20912;-57
2022/02/20 12:39:55;;;;;;;0.30;0.10;;;10.10;1.00;;;;;;5055085;28;20425;-56
2022/02/20 12:42:22;;;;;;;0.40;0.10;;;10.20;1.00;;;;;;5034129;28;20423;-54
2022/02/20 12:44:49;;;;;;;0.38;0.20;;;10.20;1.00;;;;;;5043567;28;20444;-56
2022/02/20 12:47:18;;;;;;;0.40;0.20;;;10.20;1.00;;;;;;5038942;28;20426;-56
2022/02/20 12:49:55;;;;;;;0.50;0.10;;;10.30;99.90;;;;;;5043902;28;20432;-57
2022/02/20 12:52:23;;;;;;;0.40;0.10;;;10.30;1.00;;;;;;5049001;28;20444;-53
2022/02/20 12:54:56;;;;;;;0.50;0.20;;;10.30;99.90;;;;;;5033872;28;20862;-53
2022/02/20 12:57:27;;;;;;;0.70;0.30;;;10.30;99.90;;;;;;5035949;28;20459;-54
2022/02/20 12:59:55;;;;;;;0.77;0.30;;;10.20;1.00;;;;;;5051705;28;20436;-56
2022/02/20 13:02:35;;;;;;;2.17;0.20;;;10.30;1.00;;;;;;5052297;28;20457;-57
2022/02/20 13:05:07;;;;;;;0.80;0.40;;;10.50;99.90;;;;;;5036383;28;20443;-56
2022/02/20 13:07:38;;;;;;;0.40;0.20;;;10.70;99.90;;;;;;5046871;28;20425;-57